createdAt,value
2023-12-21T00:00:55.450Z,52.05
2023-12-21T00:03:22.237Z,33.83
2023-12-21T00:05:49.092Z,36.30
2023-12-21T00:08:15.942Z,36.63
2023-12-21T00:10:42.693Z,35.80
2023-12-21T00:13:09.400Z,35.85
2023-12-21T00:15:36.045Z,36.47
2023-12-21T00:18:02.922Z,35.78
2023-12-21T00:20:30.225Z,36.85
2023-12-21T00:22:57.107Z,37.53
2023-12-21T00:25:24.113Z,38.95
2023-12-21T00:27:50.752Z,41.25
2023-12-21T00:30:17.584Z,39.47
2023-12-21T00:32:44.317Z,37.00
2023-12-21T00:35:11.071Z,40.65
2023-12-21T00:37:38.985Z,39.97
2023-12-21T00:40:06.812Z,37.03
2023-12-21T00:42:34.474Z,31.35
2023-12-21T00:45:01.098Z,35.05
2023-12-21T00:47:27.918Z,33.20
2023-12-21T00:49:54.639Z,40.33
2023-12-21T00:52:21.363Z,38.10
2023-12-21T00:54:48.145Z,37.88
2023-12-21T00:57:14.906Z,33.53
2023-12-21T00:59:41.532Z,37.58
2023-12-21T01:02:08.693Z,35.03
2023-12-21T01:04:35.593Z,36.97
2023-12-21T01:07:02.712Z,37.53
2023-12-21T01:09:29.399Z,36.03
2023-12-21T01:11:56.021Z,36.58
2023-12-21T01:14:23.417Z,42.28
2023-12-21T01:16:50.240Z,37.92
2023-12-21T01:19:17.036Z,41.63
2023-12-21T01:21:44.115Z,34.35
2023-12-21T01:24:10.722Z,36.38
2023-12-21T01:26:37.515Z,32.55
2023-12-21T01:29:04.385Z,37.75
2023-12-21T01:31:31.206Z,33.33
2023-12-21T01:33:58.164Z,35.05
2023-12-21T01:36:29.808Z,36.13
2023-12-21T01:38:58.095Z,38.30
2023-12-21T01:41:25.375Z,34.15
2023-12-21T01:43:52.165Z,37.25
2023-12-21T01:46:19.213Z,34.55
2023-12-21T01:48:47.947Z,38.60
2023-12-21T01:51:15.037Z,36.90
2023-12-21T01:53:42.578Z,40.35
2023-12-21T01:56:09.627Z,41.00
2023-12-21T01:58:37.405Z,37.58
2023-12-21T02:01:06.232Z,35.97
2023-12-21T02:03:33.299Z,37.30
2023-12-21T02:06:00.871Z,36.90
2023-12-21T02:08:28.516Z,37.92
2023-12-21T02:11:01.217Z,35.65
2023-12-21T02:13:28.002Z,39.50
2023-12-21T02:15:58.633Z,36.08
2023-12-21T02:18:25.764Z,41.90
2023-12-21T02:20:52.606Z,41.70
2023-12-21T02:23:20.833Z,37.95
2023-12-21T02:25:47.822Z,43.80
2023-12-21T02:28:14.598Z,40.92
2023-12-21T02:30:41.311Z,38.63
2023-12-21T02:33:08.374Z,35.65
2023-12-21T02:35:35.667Z,38.13
2023-12-21T02:38:02.391Z,36.92
2023-12-21T02:40:29.312Z,38.22
2023-12-21T02:42:56.262Z,35.72
2023-12-21T02:45:23.054Z,32.83
2023-12-21T02:47:49.916Z,38.00
2023-12-21T02:50:16.826Z,39.63
2023-12-21T02:52:43.865Z,38.20
2023-12-21T02:55:10.731Z,33.08
2023-12-21T02:57:37.475Z,34.75
2023-12-21T03:00:04.532Z,35.78
2023-12-21T03:02:31.937Z,36.05
2023-12-21T03:04:58.802Z,44.88
2023-12-21T03:07:26.705Z,41.67
2023-12-21T03:09:54.263Z,40.45
2023-12-21T03:12:20.876Z,41.15
2023-12-21T03:14:47.741Z,37.90
2023-12-21T03:17:15.422Z,38.33
2023-12-21T03:19:42.202Z,37.53
2023-12-21T03:22:09.025Z,32.63
2023-12-21T03:24:36.185Z,33.25
2023-12-21T03:27:03.400Z,34.53
2023-12-21T03:29:30.208Z,32.50
2023-12-21T03:31:57.970Z,35.45
2023-12-21T03:34:24.799Z,27.25
2023-12-21T03:36:51.866Z,27.08
2023-12-21T03:39:18.493Z,26.50
2023-12-21T03:41:45.634Z,26.50
2023-12-21T03:44:12.266Z,30.27
2023-12-21T03:46:39.342Z,29.20
2023-12-21T03:49:06.489Z,29.52
2023-12-21T03:51:33.901Z,31.02
2023-12-21T03:54:00.802Z,25.25
2023-12-21T03:56:27.462Z,31.00
2023-12-21T03:58:54.076Z,26.65
2023-12-21T04:01:25.665Z,28.70
2023-12-21T04:03:52.985Z,25.23
2023-12-21T04:06:19.955Z,26.38
2023-12-21T04:08:46.713Z,30.98
2023-12-21T04:11:14.486Z,28.98
2023-12-21T04:13:41.139Z,25.58
2023-12-21T04:16:08.181Z,22.42
2023-12-21T04:18:35.033Z,28.05
2023-12-21T04:21:02.228Z,27.33
2023-12-21T04:23:28.884Z,26.33
2023-12-21T04:25:55.650Z,29.33
2023-12-21T04:28:22.286Z,27.48
2023-12-21T04:30:49.172Z,27.05
2023-12-21T04:33:16.184Z,29.95
2023-12-21T04:35:46.143Z,26.10
2023-12-21T04:38:15.973Z,29.90
2023-12-21T04:40:42.956Z,29.08
2023-12-21T04:43:09.840Z,29.85
2023-12-21T04:45:36.621Z,25.08
2023-12-21T04:48:03.627Z,28.88
2023-12-21T04:50:30.717Z,33.20
2023-12-21T04:52:57.473Z,28.13
2023-12-21T04:55:24.191Z,30.08
2023-12-21T04:57:50.998Z,30.75
2023-12-21T05:00:17.687Z,29.65
2023-12-21T05:02:44.749Z,28.48
2023-12-21T05:05:11.539Z,32.58
2023-12-21T05:07:38.811Z,29.63
2023-12-21T05:10:06.667Z,29.10
2023-12-21T05:12:33.419Z,30.75
2023-12-21T05:15:00.115Z,29.88
2023-12-21T05:17:27.187Z,28.05
2023-12-21T05:19:54.297Z,29.10
2023-12-21T05:22:21.425Z,28.02
2023-12-21T05:24:48.075Z,29.45
2023-12-21T05:27:15.074Z,29.05
2023-12-21T05:29:43.791Z,29.70
2023-12-21T05:32:10.740Z,29.65
2023-12-21T05:34:41.175Z,25.30
2023-12-21T05:37:10.017Z,31.40
2023-12-21T05:39:37.203Z,28.83
2023-12-21T05:42:04.160Z,30.42
2023-12-21T05:44:31.504Z,27.30
2023-12-21T05:46:58.387Z,29.73
2023-12-21T05:49:25.361Z,29.65
2023-12-21T05:51:52.189Z,36.40
2023-12-21T05:54:18.929Z,43.63
2023-12-21T05:56:45.827Z,39.42
2023-12-21T05:59:13.621Z,32.30
2023-12-21T06:01:42.635Z,30.52
2023-12-21T06:04:09.522Z,32.38
2023-12-21T06:06:37.900Z,28.95
2023-12-21T06:09:06.867Z,32.55
2023-12-21T06:11:33.546Z,28.80
2023-12-21T06:14:00.605Z,26.88
2023-12-21T06:16:27.740Z,25.25
2023-12-21T06:18:54.450Z,28.40
2023-12-21T06:21:21.627Z,26.05
2023-12-21T06:23:48.392Z,29.90
2023-12-21T06:26:15.147Z,26.98
2023-12-21T06:28:42.338Z,28.77
2023-12-21T06:31:10.492Z,27.33
2023-12-21T06:33:37.484Z,30.27
2023-12-21T06:36:04.826Z,29.55
2023-12-21T06:38:31.948Z,30.35
2023-12-21T06:40:58.946Z,31.52
2023-12-21T06:43:26.491Z,29.58
2023-12-21T06:45:53.692Z,29.83
2023-12-21T06:48:20.436Z,24.10
2023-12-21T06:50:47.366Z,31.40
2023-12-21T06:53:17.072Z,26.15
2023-12-21T06:55:44.411Z,28.90
2023-12-21T06:58:11.907Z,27.55
2023-12-21T07:00:38.654Z,29.92
2023-12-21T07:03:05.573Z,29.13
2023-12-21T07:05:32.790Z,26.25
2023-12-21T07:07:59.461Z,30.60
2023-12-21T07:10:26.111Z,32.00
2023-12-21T07:12:53.008Z,31.00
2023-12-21T07:15:20.006Z,27.85
2023-12-21T07:17:47.352Z,29.17
2023-12-21T07:20:14.161Z,31.05
2023-12-21T07:22:41.072Z,33.10
2023-12-21T07:25:08.326Z,31.70
2023-12-21T07:27:35.053Z,33.78
2023-12-21T07:30:02.071Z,33.22
2023-12-21T07:32:28.813Z,36.08
2023-12-21T07:34:55.588Z,34.92
2023-12-21T07:37:23.584Z,31.70
2023-12-21T07:39:50.354Z,29.40
2023-12-21T07:42:18.718Z,32.13
2023-12-21T07:44:46.420Z,33.42
2023-12-21T07:47:13.335Z,28.70
2023-12-21T07:49:40.018Z,30.13
2023-12-21T07:52:07.612Z,34.03
2023-12-21T07:54:34.827Z,32.78
2023-12-21T07:57:02.076Z,34.28
2023-12-21T07:59:28.915Z,32.60
2023-12-21T08:01:56.354Z,34.00
2023-12-21T08:04:23.358Z,34.28
2023-12-21T08:06:50.031Z,34.38
2023-12-21T08:09:17.100Z,35.50
2023-12-21T08:11:43.862Z,38.58
2023-12-21T08:14:10.667Z,40.35
2023-12-21T08:16:37.885Z,40.50
2023-12-21T08:19:04.706Z,37.00
2023-12-21T08:21:32.019Z,39.92
2023-12-21T08:23:59.160Z,29.17
2023-12-21T08:26:25.984Z,33.05
2023-12-21T08:28:54.069Z,28.17
2023-12-21T08:31:27.826Z,27.30
2023-12-21T08:33:56.014Z,24.50
2023-12-21T08:36:22.844Z,20.35
2023-12-21T08:38:49.548Z,18.67
2023-12-21T08:41:16.661Z,19.45
2023-12-21T08:43:43.716Z,16.67
2023-12-21T08:46:10.404Z,16.77
2023-12-21T08:48:38.590Z,17.45
2023-12-21T08:51:05.265Z,17.98
2023-12-21T08:53:32.154Z,15.98
2023-12-21T08:55:58.789Z,16.48
2023-12-21T08:58:25.399Z,16.40
2023-12-21T09:00:52.459Z,16.65
2023-12-21T09:03:20.381Z,20.83
2023-12-21T09:05:47.749Z,15.95
2023-12-21T09:08:14.834Z,21.83
2023-12-21T09:10:41.688Z,16.42
2023-12-21T09:13:09.160Z,18.67
2023-12-21T09:15:37.715Z,18.20
2023-12-21T09:18:07.228Z,22.38
2023-12-21T09:20:34.067Z,21.98
2023-12-21T09:23:01.090Z,20.48
2023-12-21T09:25:28.054Z,19.85
2023-12-21T09:27:55.347Z,21.92
2023-12-21T09:30:26.800Z,18.75
2023-12-21T09:32:54.182Z,19.92
2023-12-21T09:35:22.438Z,20.00
2023-12-21T09:37:51.069Z,19.33
2023-12-21T09:40:18.450Z,21.02
2023-12-21T09:42:58.087Z,18.95
2023-12-21T09:45:32.762Z,18.33
2023-12-21T09:48:00.301Z,15.52
2023-12-21T09:50:29.455Z,18.63
2023-12-21T09:52:56.142Z,20.35
2023-12-21T09:55:25.095Z,20.77
2023-12-21T09:57:53.055Z,19.35
2023-12-21T10:00:19.899Z,18.95
2023-12-21T10:02:46.977Z,16.40
2023-12-21T10:05:14.131Z,14.88
2023-12-21T10:07:41.303Z,16.20
2023-12-21T10:10:09.100Z,11.02
2023-12-21T10:12:36.013Z,11.93
2023-12-21T10:15:05.303Z,14.25
2023-12-21T10:17:34.229Z,12.70
2023-12-21T10:20:03.845Z,13.27
2023-12-21T10:22:33.162Z,12.80
2023-12-21T10:25:00.632Z,15.30
2023-12-21T10:27:28.354Z,15.65
2023-12-21T10:29:57.144Z,14.40
2023-12-21T10:32:24.159Z,12.45
2023-12-21T10:34:51.021Z,10.82
2023-12-21T10:37:18.368Z,12.48
2023-12-21T10:39:45.334Z,12.07
2023-12-21T10:42:15.656Z,10.98
2023-12-21T10:44:46.572Z,10.38
2023-12-21T10:47:14.704Z,10.52
2023-12-21T10:49:42.154Z,14.35
2023-12-21T10:52:13.743Z,11.18
2023-12-21T10:54:43.987Z,17.52
2023-12-21T10:57:11.283Z,12.02
2023-12-21T10:59:39.240Z,14.40
2023-12-21T11:02:11.722Z,10.75
2023-12-21T11:04:39.792Z,12.13
2023-12-21T11:07:09.230Z,10.88
2023-12-21T11:09:37.066Z,13.68
2023-12-21T11:12:04.225Z,14.30
2023-12-21T11:14:31.058Z,14.55
2023-12-21T11:17:01.652Z,13.98
2023-12-21T11:19:34.198Z,13.38
2023-12-21T11:22:02.400Z,18.58
2023-12-21T11:24:29.364Z,13.48
2023-12-21T11:26:57.580Z,15.18
2023-12-21T11:29:30.458Z,15.02
2023-12-21T11:34:40.441Z,20.02
2023-12-21T11:37:18.137Z,15.00
2023-12-21T11:39:46.663Z,13.50
2023-12-21T11:42:14.064Z,13.57
2023-12-21T11:44:40.698Z,12.07
2023-12-21T11:47:08.746Z,15.07
2023-12-21T11:49:35.894Z,12.80
2023-12-21T11:52:03.402Z,15.93
2023-12-21T11:54:31.472Z,13.13
2023-12-21T11:57:12.320Z,20.63
2023-12-21T11:59:40.120Z,17.83
2023-12-21T12:02:12.705Z,13.30
2023-12-21T12:04:40.097Z,15.48
2023-12-21T12:07:07.462Z,11.65
2023-12-21T12:09:34.222Z,11.55
2023-12-21T12:12:01.071Z,14.07
2023-12-21T12:14:28.608Z,12.32
2023-12-21T12:16:56.064Z,17.80
2023-12-21T12:19:28.049Z,14.73
2023-12-21T12:21:55.380Z,15.05
2023-12-21T12:24:23.253Z,13.75
2023-12-21T12:26:50.939Z,10.68
2023-12-21T12:29:18.811Z,12.05
2023-12-21T12:31:46.531Z,13.20
2023-12-21T12:34:14.663Z,15.20
2023-12-21T12:36:41.759Z,13.75
2023-12-21T12:39:12.134Z,12.52
2023-12-21T12:41:39.483Z,12.20
2023-12-21T12:44:06.273Z,13.57
2023-12-21T12:46:33.422Z,12.18
2023-12-21T12:49:00.410Z,14.65
2023-12-21T12:51:27.155Z,11.70
2023-12-21T12:53:53.953Z,14.85
2023-12-21T12:56:20.724Z,16.35
2023-12-21T12:58:56.143Z,13.73
2023-12-21T13:01:28.533Z,14.75
2023-12-21T13:03:56.976Z,14.20
2023-12-21T13:06:24.046Z,12.43
2023-12-21T13:08:51.391Z,12.55
2023-12-21T13:11:18.686Z,12.27
2023-12-21T13:13:45.708Z,13.70
2023-12-21T13:16:13.437Z,12.60
2023-12-21T13:18:40.614Z,21.95
2023-12-21T13:21:07.787Z,21.52
2023-12-21T13:23:35.341Z,18.45
2023-12-21T13:26:02.391Z,18.20
2023-12-21T13:28:30.254Z,21.70
2023-12-21T13:30:57.068Z,23.02
2023-12-21T13:33:24.269Z,24.75
2023-12-21T13:35:51.376Z,27.17
2023-12-21T13:38:18.601Z,26.15
2023-12-21T13:40:46.081Z,23.55
2023-12-21T13:43:13.281Z,24.85
2023-12-21T13:45:40.955Z,21.73
2023-12-21T13:48:09.524Z,23.15
2023-12-21T13:50:38.170Z,30.80
2023-12-21T13:53:05.184Z,22.70
2023-12-21T13:55:31.954Z,25.15
2023-12-21T13:57:59.720Z,22.60
2023-12-21T14:00:28.183Z,24.23
2023-12-21T14:02:55.838Z,21.48
2023-12-21T14:05:22.743Z,21.58
2023-12-21T14:07:50.360Z,21.73
2023-12-21T14:10:17.655Z,22.50
2023-12-21T14:12:45.028Z,24.23
2023-12-21T14:15:11.921Z,18.50
2023-12-21T14:17:40.391Z,27.77
2023-12-21T14:20:08.809Z,22.35
2023-12-21T14:22:35.561Z,24.75
2023-12-21T14:25:02.251Z,25.33
2023-12-21T14:27:29.873Z,18.98
2023-12-21T14:29:56.545Z,18.00
2023-12-21T14:32:23.261Z,21.65
2023-12-21T14:34:50.215Z,24.40
2023-12-21T14:37:16.894Z,21.55
2023-12-21T14:39:44.397Z,20.67
2023-12-21T14:42:11.132Z,22.88
2023-12-21T14:44:39.855Z,23.60
2023-12-21T14:47:06.655Z,19.55
2023-12-21T14:49:33.735Z,21.23
2023-12-21T14:52:00.957Z,20.17
2023-12-21T14:54:27.803Z,29.60
2023-12-21T14:56:54.513Z,16.90
2023-12-21T14:59:21.178Z,20.73
2023-12-21T15:01:50.384Z,19.67
2023-12-21T15:04:18.341Z,17.58
2023-12-21T15:06:48.978Z,18.02
2023-12-21T15:09:15.592Z,16.75
2023-12-21T15:11:42.202Z,18.55
2023-12-21T15:14:11.301Z,19.75
2023-12-21T15:16:39.580Z,16.92
2023-12-21T15:19:06.849Z,20.38
2023-12-21T15:21:33.767Z,16.08
2023-12-21T15:24:00.956Z,19.70
2023-12-21T15:26:27.789Z,15.23
2023-12-21T15:28:54.631Z,17.00
2023-12-21T15:31:21.690Z,19.70
2023-12-21T15:33:48.404Z,17.05
2023-12-21T15:36:17.380Z,16.05
2023-12-21T15:38:44.480Z,17.27
2023-12-21T15:41:22.462Z,14.13
2023-12-21T15:43:51.082Z,19.08
2023-12-21T15:46:18.604Z,14.43
2023-12-21T15:48:47.330Z,17.02
2023-12-21T15:51:15.681Z,17.63
2023-12-21T15:53:42.664Z,16.55
2023-12-21T15:56:10.151Z,16.60
2023-12-21T15:58:36.811Z,18.50
2023-12-21T16:01:05.446Z,15.77
2023-12-21T16:03:32.774Z,17.42
2023-12-21T16:06:01.022Z,18.02
2023-12-21T16:08:27.845Z,16.95
2023-12-21T16:10:54.816Z,22.13
2023-12-21T16:13:21.687Z,19.40
2023-12-21T16:15:48.434Z,19.90
2023-12-21T16:18:15.637Z,18.27
2023-12-21T16:20:42.431Z,17.40
2023-12-21T16:23:09.936Z,19.08
2023-12-21T16:25:36.693Z,17.80
2023-12-21T16:28:06.438Z,16.90
2023-12-21T16:30:36.678Z,16.83
2023-12-21T16:33:04.405Z,23.10
2023-12-21T16:35:31.535Z,20.05
2023-12-21T16:37:58.412Z,17.73
2023-12-21T16:40:25.759Z,20.73
2023-12-21T16:42:52.593Z,19.98
2023-12-21T16:45:20.061Z,16.67
2023-12-21T16:47:47.039Z,18.38
2023-12-21T16:50:13.894Z,24.90
2023-12-21T16:52:41.088Z,29.85
2023-12-21T16:55:08.866Z,29.70
2023-12-21T16:57:36.492Z,30.95
2023-12-21T17:00:06.398Z,27.58
2023-12-21T17:02:33.332Z,27.05
2023-12-21T17:05:01.915Z,26.83
2023-12-21T17:07:29.001Z,26.27
2023-12-21T17:09:56.771Z,20.98
2023-12-21T17:12:24.107Z,23.80
2023-12-21T17:14:51.178Z,28.25
2023-12-21T17:17:17.809Z,25.67
2023-12-21T17:19:45.553Z,29.52
2023-12-21T17:22:12.281Z,26.48
2023-12-21T17:24:39.015Z,27.05
2023-12-21T17:27:05.971Z,20.13
2023-12-21T17:29:32.649Z,21.17
2023-12-21T17:32:00.519Z,22.23
2023-12-21T17:34:27.265Z,24.13
2023-12-21T17:36:53.961Z,23.63
2023-12-21T17:39:21.059Z,20.67
2023-12-21T17:41:50.508Z,20.63
2023-12-21T17:44:18.107Z,24.50
2023-12-21T17:46:45.304Z,22.33
2023-12-21T17:49:12.982Z,26.80
2023-12-21T17:51:39.935Z,30.30
2023-12-21T17:54:06.567Z,24.50
2023-12-21T17:56:33.534Z,24.08
2023-12-21T17:59:01.160Z,23.35
2023-12-21T18:01:28.492Z,26.27
2023-12-21T18:03:56.257Z,23.25
2023-12-21T18:06:23.293Z,22.77
2023-12-21T18:08:50.870Z,25.38
2023-12-21T18:11:18.629Z,28.95
2023-12-21T18:13:45.930Z,26.42
2023-12-21T18:16:14.111Z,26.60
2023-12-21T18:18:41.467Z,24.60
2023-12-21T18:21:08.455Z,24.30
2023-12-21T18:23:35.171Z,37.22
2023-12-21T18:26:02.788Z,29.80
2023-12-21T18:28:30.059Z,33.65
2023-12-21T18:30:57.337Z,32.58
2023-12-21T18:33:24.443Z,33.63
2023-12-21T18:35:52.198Z,33.03
2023-12-21T18:38:19.584Z,26.98
2023-12-21T18:40:47.117Z,28.65
2023-12-21T18:43:16.068Z,26.15
2023-12-21T18:45:45.170Z,26.63
2023-12-21T18:48:11.958Z,33.22
2023-12-21T18:50:39.057Z,28.50
2023-12-21T18:53:06.231Z,23.77
2023-12-21T18:55:32.984Z,27.45
2023-12-21T18:58:02.885Z,28.13
2023-12-21T19:00:30.344Z,26.02
2023-12-21T19:02:57.684Z,27.13
2023-12-21T19:05:24.757Z,28.50
2023-12-21T19:07:52.589Z,27.33
2023-12-21T19:10:19.720Z,22.45
2023-12-21T19:12:46.903Z,26.77
2023-12-21T19:15:14.245Z,25.20
2023-12-21T19:17:42.308Z,25.15
2023-12-21T19:20:09.821Z,27.08
2023-12-21T19:22:37.309Z,26.55
2023-12-21T19:25:05.133Z,26.77
2023-12-21T19:27:32.053Z,26.63
2023-12-21T19:29:59.808Z,27.50
2023-12-21T19:32:27.011Z,25.88
2023-12-21T19:34:54.931Z,25.45
2023-12-21T19:37:22.920Z,26.88
2023-12-21T19:39:49.679Z,25.30
2023-12-21T19:42:16.905Z,29.67
2023-12-21T19:44:44.104Z,23.98
2023-12-21T19:47:12.717Z,28.25
2023-12-21T19:49:41.078Z,24.73
2023-12-21T19:52:08.689Z,23.52
2023-12-21T19:54:36.096Z,22.02
2023-12-21T19:57:03.416Z,28.25
2023-12-21T19:59:30.383Z,27.42
2023-12-21T20:01:57.888Z,34.92
2023-12-21T20:04:25.250Z,42.85
2023-12-21T20:06:52.471Z,33.78
2023-12-21T20:09:19.898Z,25.77
2023-12-21T20:11:47.032Z,35.70
2023-12-21T20:14:14.263Z,29.77
2023-12-21T20:16:42.613Z,28.48
2023-12-21T20:19:09.505Z,24.83
2023-12-21T20:21:36.514Z,28.10
2023-12-21T20:24:04.014Z,30.40
2023-12-21T20:26:31.485Z,32.20
2023-12-21T20:28:58.189Z,25.83
2023-12-21T20:31:25.849Z,24.77
2023-12-21T20:33:52.910Z,32.30
2023-12-21T20:36:19.772Z,21.67
2023-12-21T20:38:47.533Z,23.25
2023-12-21T20:41:14.301Z,25.38
2023-12-21T20:43:41.253Z,23.35
2023-12-21T20:46:09.823Z,24.10
2023-12-21T20:48:37.175Z,23.75
2023-12-21T20:51:05.551Z,22.25
2023-12-21T20:53:32.598Z,23.67
2023-12-21T20:55:59.459Z,24.23
2023-12-21T20:58:26.403Z,23.95
2023-12-21T21:00:53.052Z,22.75
2023-12-21T21:03:20.650Z,24.98
2023-12-21T21:05:49.357Z,26.65
2023-12-21T21:08:16.097Z,21.30
2023-12-21T21:10:43.640Z,22.60
2023-12-21T21:13:10.410Z,25.38
2023-12-21T21:15:37.274Z,23.38
2023-12-21T21:18:04.324Z,26.98
2023-12-21T21:20:31.767Z,25.80
2023-12-21T21:22:58.531Z,29.15
2023-12-21T21:25:25.308Z,22.20
2023-12-21T21:27:52.138Z,24.13
2023-12-21T21:30:54.716Z,22.50
2023-12-21T21:33:06.282Z,23.70
2023-12-21T21:35:33.224Z,26.08
2023-12-21T21:38:00.130Z,30.15
2023-12-21T21:40:26.926Z,32.22
2023-12-21T21:42:53.754Z,35.78
2023-12-21T21:45:20.589Z,30.38
2023-12-21T21:47:47.956Z,31.20
2023-12-21T21:50:15.050Z,28.23
2023-12-21T21:52:41.960Z,36.15
2023-12-21T21:55:10.486Z,28.55
2023-12-21T21:57:37.635Z,33.88
2023-12-21T22:00:06.281Z,30.02
2023-12-21T22:02:34.559Z,29.38
2023-12-21T22:05:01.817Z,30.05
2023-12-21T22:07:28.738Z,29.67
2023-12-21T22:09:55.442Z,26.58
2023-12-21T22:12:22.173Z,32.00
2023-12-21T22:14:49.279Z,27.55
2023-12-21T22:17:16.277Z,25.90
2023-12-21T22:19:43.222Z,26.00
2023-12-21T22:22:10.321Z,29.52
2023-12-21T22:24:37.134Z,24.15
2023-12-21T22:27:04.341Z,26.60
2023-12-21T22:29:30.965Z,25.20
2023-12-21T22:31:57.672Z,26.15
2023-12-21T22:34:24.501Z,23.13
2023-12-21T22:36:51.424Z,23.33
2023-12-21T22:39:18.149Z,25.30
2023-12-21T22:41:44.858Z,22.20
2023-12-21T22:44:11.582Z,21.75
2023-12-21T22:46:38.838Z,20.95
2023-12-21T22:49:06.081Z,20.60
2023-12-21T22:51:32.909Z,19.70
2023-12-21T22:54:00.555Z,24.13
2023-12-21T22:56:27.259Z,23.58
2023-12-21T22:58:54.443Z,20.25
2023-12-21T23:01:21.245Z,20.55
2023-12-21T23:03:47.988Z,17.98
2023-12-21T23:06:15.053Z,19.50
2023-12-21T23:08:41.782Z,17.13
2023-12-21T23:11:09.490Z,27.25
2023-12-21T23:13:36.190Z,14.27
2023-12-21T23:16:06.018Z,15.70
2023-12-21T23:18:33.713Z,15.90
2023-12-21T23:21:00.887Z,10.13
2023-12-21T23:23:27.505Z,9.38
2023-12-21T23:25:54.330Z,9.50
2023-12-21T23:28:21.197Z,9.20
2023-12-21T23:30:49.311Z,6.40
2023-12-21T23:33:18.057Z,7.50
2023-12-21T23:35:44.946Z,6.10
2023-12-21T23:38:11.736Z,2.70
2023-12-21T23:40:38.617Z,1.92
2023-12-21T23:43:05.550Z,1.92
2023-12-21T23:45:32.170Z,0.57
2023-12-21T23:47:58.975Z,0.95
2023-12-21T23:50:26.363Z,0.68
2023-12-21T23:52:53.324Z,0.45
2023-12-21T23:55:20.035Z,1.23
2023-12-21T23:57:47.091Z,4.90
